createdAt,value
2018-06-21T00:00:10.520Z,413.30
2018-06-21T00:01:10.500Z,410.70
2018-06-21T00:02:10.474Z,410.10
2018-06-21T00:03:10.447Z,394.90
2018-06-21T00:04:10.420Z,385.40
2018-06-21T00:05:10.401Z,384.30
2018-06-21T00:06:10.375Z,383.40
2018-06-21T00:07:10.360Z,365.40
2018-06-21T00:08:10.330Z,387.40
2018-06-21T00:09:10.315Z,367.20
2018-06-21T00:10:10.300Z,369.10
2018-06-21T00:11:10.267Z,362.10
2018-06-21T00:12:10.247Z,358.00
2018-06-21T00:13:10.223Z,414.40
2018-06-21T00:14:10.193Z,393.10
2018-06-21T00:15:10.178Z,410.00
2018-06-21T00:16:10.206Z,403.40
2018-06-21T00:17:10.127Z,389.20
2018-06-21T00:18:10.106Z,387.60
2018-06-21T00:19:10.078Z,400.00
2018-06-21T00:20:10.058Z,417.00
2018-06-21T00:21:10.043Z,397.20
2018-06-21T00:22:10.016Z,410.60
2018-06-21T00:23:09.995Z,402.80
2018-06-21T00:24:09.976Z,388.80
2018-06-21T00:25:09.958Z,378.60
2018-06-21T00:26:09.926Z,401.90
2018-06-21T00:27:09.898Z,407.20
2018-06-21T00:28:09.873Z,428.70
2018-06-21T00:29:09.858Z,423.50
2018-06-21T00:30:09.836Z,401.80
2018-06-21T00:31:09.808Z,399.10
2018-06-21T00:32:09.785Z,391.80
2018-06-21T00:33:09.759Z,394.10
2018-06-21T00:34:09.744Z,432.90
2018-06-21T00:35:09.722Z,404.00
2018-06-21T00:36:09.691Z,400.90
2018-06-21T00:37:09.676Z,395.00
2018-06-21T00:38:09.646Z,406.80
2018-06-21T00:39:09.630Z,414.00
2018-06-21T00:40:09.605Z,408.60
2018-06-21T00:41:09.578Z,444.40
2018-06-21T00:42:09.562Z,449.50
2018-06-21T00:43:09.531Z,486.90
2018-06-21T00:44:09.519Z,458.80
2018-06-21T00:45:09.489Z,479.40
2018-06-21T00:46:09.462Z,439.40
2018-06-21T00:47:09.449Z,492.70
2018-06-21T00:48:09.415Z,407.30
2018-06-21T00:49:09.398Z,415.10
2018-06-21T00:50:09.372Z,459.80
2018-06-21T00:51:09.347Z,443.90
2018-06-21T00:52:09.326Z,453.60
2018-06-21T00:53:09.306Z,559.80
2018-06-21T00:54:09.291Z,514.50
2018-06-21T00:55:09.255Z,504.80
2018-06-21T00:56:09.244Z,572.30
2018-06-21T00:57:09.208Z,543.00
2018-06-21T00:58:09.186Z,578.70
2018-06-21T00:59:09.173Z,546.20
2018-06-21T01:00:09.146Z,501.30
2018-06-21T01:01:09.126Z,416.80
2018-06-21T01:02:09.097Z,281.00
2018-06-21T01:03:09.075Z,275.20
2018-06-21T01:04:09.052Z,283.90
2018-06-21T01:05:09.031Z,317.70
2018-06-21T01:06:09.015Z,306.30
2018-06-21T01:07:08.982Z,293.40
2018-06-21T01:08:08.962Z,254.20
2018-06-21T01:09:08.948Z,240.90
2018-06-21T01:10:08.909Z,295.50
2018-06-21T01:11:08.888Z,271.70
2018-06-21T01:12:08.863Z,285.00
2018-06-21T01:13:08.850Z,245.20
2018-06-21T01:14:08.830Z,263.70
2018-06-21T01:15:08.794Z,250.50
2018-06-21T01:16:08.783Z,285.80
2018-06-21T01:17:08.756Z,234.60
2018-06-21T01:18:08.724Z,220.60
2018-06-21T01:19:08.712Z,243.10
2018-06-21T01:20:08.694Z,237.30
2018-06-21T01:21:08.667Z,296.40
2018-06-21T01:22:08.636Z,303.80
2018-06-21T01:23:08.617Z,324.70
2018-06-21T01:24:08.593Z,357.40
2018-06-21T01:25:08.571Z,398.50
2018-06-21T01:26:08.549Z,426.20
2018-06-21T01:27:08.517Z,443.20
2018-06-21T01:28:08.496Z,440.10
2018-06-21T01:29:08.474Z,396.40
2018-06-21T01:30:08.449Z,346.70
2018-06-21T01:31:08.427Z,349.70
2018-06-21T01:32:08.408Z,450.90
2018-06-21T01:33:08.381Z,458.50
2018-06-21T01:34:08.372Z,456.40
2018-06-21T01:35:08.340Z,456.20
2018-06-21T01:36:08.323Z,501.30
2018-06-21T01:37:08.293Z,396.10
2018-06-21T01:38:08.264Z,477.00
2018-06-21T01:39:08.248Z,454.80
2018-06-21T01:40:08.221Z,453.20
2018-06-21T01:41:08.196Z,463.60
2018-06-21T01:42:08.177Z,439.10
2018-06-21T01:43:08.150Z,432.30
2018-06-21T01:44:08.129Z,464.70
2018-06-21T01:45:08.225Z,439.80
2018-06-21T01:46:08.084Z,386.10
2018-06-21T01:47:08.053Z,425.60
2018-06-21T01:48:08.033Z,368.30
2018-06-21T01:49:08.014Z,391.30
2018-06-21T01:50:07.989Z,404.70
2018-06-21T01:51:07.966Z,382.10
2018-06-21T01:52:07.942Z,424.50
2018-06-21T01:53:07.916Z,401.50
2018-06-21T01:54:07.893Z,439.90
2018-06-21T01:55:07.873Z,442.30
2018-06-21T01:56:07.847Z,431.90
2018-06-21T01:57:07.827Z,439.90
2018-06-21T01:58:07.818Z,418.20
2018-06-21T01:59:07.779Z,398.40
2018-06-21T02:00:07.753Z,323.20
2018-06-21T02:01:07.733Z,331.50
2018-06-21T02:02:07.705Z,300.50
2018-06-21T02:03:07.689Z,300.70
2018-06-21T02:04:07.662Z,331.50
2018-06-21T02:05:07.663Z,368.50
2018-06-21T02:06:07.624Z,346.10
2018-06-21T02:07:07.585Z,413.70
2018-06-21T02:08:07.640Z,367.20
2018-06-21T02:09:07.540Z,390.60
2018-06-21T02:10:07.518Z,390.10
2018-06-21T02:11:07.519Z,351.60
2018-06-21T02:12:07.473Z,317.80
2018-06-21T02:13:07.455Z,364.40
2018-06-21T02:14:07.424Z,330.30
2018-06-21T02:15:07.401Z,327.80
2018-06-21T02:16:07.376Z,367.60
2018-06-21T02:17:07.362Z,363.10
2018-06-21T02:18:07.339Z,338.20
2018-06-21T02:19:07.306Z,312.70
2018-06-21T02:20:07.292Z,327.90
2018-06-21T02:21:07.268Z,329.10
2018-06-21T02:22:07.248Z,345.70
2018-06-21T02:23:07.221Z,319.60
2018-06-21T02:24:07.190Z,341.20
2018-06-21T02:25:07.175Z,347.30
2018-06-21T02:26:07.148Z,315.90
2018-06-21T02:27:07.124Z,343.50
2018-06-21T02:28:07.100Z,346.20
2018-06-21T02:29:07.077Z,369.20
2018-06-21T02:30:07.058Z,369.20
2018-06-21T02:31:07.029Z,348.30
2018-06-21T02:32:07.007Z,332.80
2018-06-21T02:33:06.984Z,337.90
2018-06-21T02:34:06.958Z,364.00
2018-06-21T02:35:06.935Z,447.20
2018-06-21T02:36:06.908Z,445.00
2018-06-21T02:37:06.887Z,484.10
2018-06-21T02:38:06.868Z,427.30
2018-06-21T02:39:06.844Z,367.00
2018-06-21T02:40:06.823Z,360.90
2018-06-21T02:41:06.798Z,447.90
2018-06-21T02:42:06.790Z,488.40
2018-06-21T02:43:06.748Z,467.10
2018-06-21T02:44:06.724Z,444.80
2018-06-21T02:45:06.705Z,447.70
2018-06-21T02:46:06.678Z,429.80
2018-06-21T02:47:06.651Z,359.60
2018-06-21T02:48:06.656Z,357.80
2018-06-21T02:49:06.616Z,414.30
2018-06-21T02:50:06.581Z,463.90
2018-06-21T02:51:06.556Z,386.80
2018-06-21T02:52:06.539Z,396.50
2018-06-21T02:53:06.512Z,298.70
2018-06-21T02:54:06.486Z,333.60
2018-06-21T02:55:06.470Z,326.80
2018-06-21T02:56:06.441Z,325.00
2018-06-21T02:57:06.417Z,356.70
2018-06-21T02:58:06.402Z,334.80
2018-06-21T02:59:06.369Z,325.90
2018-06-21T03:00:06.395Z,376.10
2018-06-21T03:01:06.390Z,382.90
2018-06-21T03:02:06.297Z,388.70
2018-06-21T03:03:06.333Z,408.90
2018-06-21T03:04:06.268Z,510.30
2018-06-21T03:05:06.225Z,617.30
2018-06-21T03:06:06.206Z,655.50
2018-06-21T03:07:06.190Z,593.80
2018-06-21T03:08:06.151Z,434.70
2018-06-21T03:09:06.136Z,329.30
2018-06-21T03:10:06.110Z,312.30
2018-06-21T03:11:06.087Z,279.20
2018-06-21T03:12:06.063Z,298.40
2018-06-21T03:13:06.039Z,358.00
2018-06-21T03:14:06.016Z,458.60
2018-06-21T03:15:05.988Z,584.90
2018-06-21T03:16:05.966Z,788.70
2018-06-21T03:17:05.942Z,698.50
2018-06-21T03:18:05.913Z,630.70
2018-06-21T03:19:05.903Z,369.90
2018-06-21T03:20:05.871Z,368.40
2018-06-21T03:21:05.856Z,447.20
2018-06-21T03:22:05.872Z,517.60
2018-06-21T03:23:05.793Z,533.80
2018-06-21T03:24:05.778Z,404.50
2018-06-21T03:25:05.750Z,404.50
2018-06-21T03:26:05.728Z,572.80
2018-06-21T03:27:05.702Z,554.80
2018-06-21T03:28:05.674Z,514.40
2018-06-21T03:29:05.661Z,355.20
2018-06-21T03:30:05.638Z,372.50
2018-06-21T03:31:05.608Z,359.10
2018-06-21T03:32:05.581Z,356.00
2018-06-21T03:33:05.560Z,369.00
2018-06-21T03:34:05.532Z,254.40
2018-06-21T03:35:05.513Z,395.90
2018-06-21T03:36:05.485Z,339.20
2018-06-21T03:37:05.460Z,358.50
2018-06-21T03:38:05.444Z,450.90
2018-06-21T03:39:05.412Z,517.40
2018-06-21T03:40:05.386Z,545.20
2018-06-21T03:41:05.369Z,578.60
2018-06-21T03:42:05.346Z,555.20
2018-06-21T03:43:05.313Z,440.10
2018-06-21T03:44:05.317Z,382.80
2018-06-21T03:45:05.274Z,391.10
2018-06-21T03:46:05.247Z,359.50
2018-06-21T03:47:05.222Z,357.70
2018-06-21T03:48:05.195Z,345.10
2018-06-21T03:49:05.177Z,314.70
2018-06-21T03:50:05.145Z,257.90
2018-06-21T03:51:05.129Z,288.10
2018-06-21T03:52:05.098Z,282.50
2018-06-21T03:53:05.096Z,318.20
2018-06-21T03:54:05.060Z,337.10
2018-06-21T03:55:05.025Z,397.70
2018-06-21T03:56:05.072Z,368.20
2018-06-21T03:57:04.980Z,423.80
2018-06-21T03:58:04.950Z,371.30
2018-06-21T03:59:04.935Z,527.90
2018-06-21T04:00:04.908Z,485.80
2018-06-21T04:01:04.884Z,492.60
2018-06-21T04:02:04.867Z,454.60
2018-06-21T04:03:04.884Z,558.00
2018-06-21T04:04:04.810Z,511.00
2018-06-21T04:05:04.788Z,467.20
2018-06-21T04:06:04.768Z,465.70
2018-06-21T04:07:04.739Z,610.80
2018-06-21T04:08:04.720Z,703.30
2018-06-21T04:09:04.688Z,650.20
2018-06-21T04:10:04.668Z,661.80
2018-06-21T04:11:04.649Z,657.70
2018-06-21T04:12:04.614Z,666.10
2018-06-21T04:13:04.599Z,668.00
2018-06-21T04:14:04.575Z,674.20
2018-06-21T04:15:04.546Z,686.20
2018-06-21T04:16:04.527Z,668.70
2018-06-21T04:17:04.492Z,679.60
2018-06-21T04:18:04.476Z,720.00
2018-06-21T04:19:04.454Z,684.10
2018-06-21T04:20:04.421Z,684.10
2018-06-21T04:21:04.422Z,714.40
2018-06-21T04:22:04.374Z,707.40
2018-06-21T04:23:04.356Z,714.60
2018-06-21T04:24:04.326Z,670.20
2018-06-21T04:25:04.309Z,694.10
2018-06-21T04:26:04.285Z,638.10
2018-06-21T04:27:04.273Z,621.30
2018-06-21T04:28:04.237Z,656.20
2018-06-21T04:29:04.205Z,640.70
2018-06-21T04:30:04.188Z,581.60
2018-06-21T04:31:04.160Z,429.70
2018-06-21T04:32:04.145Z,485.70
2018-06-21T04:33:04.148Z,520.60
2018-06-21T04:34:04.092Z,526.30
2018-06-21T04:35:04.059Z,428.70
2018-06-21T04:36:04.046Z,546.30
2018-06-21T04:37:04.010Z,377.90
2018-06-21T04:38:03.995Z,573.70
2018-06-21T04:39:03.968Z,541.50
2018-06-21T04:40:03.944Z,583.40
2018-06-21T04:41:03.919Z,650.40
2018-06-21T04:42:03.905Z,723.90
2018-06-21T04:43:03.868Z,567.10
2018-06-21T04:44:03.840Z,524.80
2018-06-21T04:45:03.836Z,480.90
2018-06-21T04:46:03.796Z,392.50
2018-06-21T04:47:03.775Z,435.10
2018-06-21T04:48:03.756Z,307.60
2018-06-21T04:49:03.739Z,330.30
2018-06-21T04:50:03.698Z,370.20
2018-06-21T04:51:03.683Z,417.80
2018-06-21T04:52:03.660Z,390.60
2018-06-21T04:53:03.628Z,372.90
2018-06-21T04:54:03.603Z,466.60
2018-06-21T04:55:03.623Z,430.20
2018-06-21T04:56:03.557Z,497.60
2018-06-21T04:57:03.539Z,420.60
2018-06-21T04:58:03.518Z,408.60
2018-06-21T04:59:03.480Z,507.70
2018-06-21T05:00:03.472Z,529.20
2018-06-21T05:01:03.448Z,592.80
2018-06-21T05:02:03.414Z,458.30
2018-06-21T05:03:03.390Z,328.60
2018-06-21T05:04:03.366Z,375.70
2018-06-21T05:05:03.342Z,589.20
2018-06-21T05:06:03.317Z,562.30
2018-06-21T05:07:03.296Z,509.90
2018-06-21T05:08:03.266Z,526.80
2018-06-21T05:09:03.250Z,507.90
2018-06-21T05:10:03.216Z,535.20
2018-06-21T05:11:03.194Z,621.50
2018-06-21T05:12:03.167Z,495.50
2018-06-21T05:13:03.152Z,483.90
2018-06-21T05:14:03.122Z,517.40
2018-06-21T05:15:03.101Z,627.90
2018-06-21T05:16:03.077Z,646.90
2018-06-21T05:17:03.048Z,725.70
2018-06-21T05:18:03.029Z,720.00
2018-06-21T05:19:03.010Z,721.20
2018-06-21T05:20:02.976Z,710.00
2018-06-21T05:21:02.960Z,720.90
2018-06-21T05:22:02.960Z,672.80
2018-06-21T05:23:02.903Z,574.70
2018-06-21T05:24:02.883Z,581.10
2018-06-21T05:25:02.904Z,679.20
2018-06-21T05:26:02.831Z,490.50
2018-06-21T05:27:02.803Z,471.20
2018-06-21T05:28:02.782Z,560.70
2018-06-21T05:29:02.743Z,408.60
2018-06-21T05:30:02.722Z,577.80
2018-06-21T05:31:02.703Z,493.50
2018-06-21T05:32:02.708Z,518.60
2018-06-21T05:33:02.655Z,499.90
2018-06-21T05:34:02.633Z,750.10
2018-06-21T05:35:02.618Z,711.10
2018-06-21T05:36:02.593Z,671.30
2018-06-21T05:37:02.556Z,650.10
2018-06-21T05:38:02.527Z,627.70
2018-06-21T05:39:02.510Z,648.80
2018-06-21T05:40:02.477Z,495.50
2018-06-21T05:41:02.463Z,697.00
2018-06-21T05:42:02.430Z,741.30
2018-06-21T05:43:02.413Z,595.00
2018-06-21T05:44:02.381Z,377.90
2018-06-21T05:45:02.381Z,535.10
2018-06-21T05:46:02.337Z,513.70
2018-06-21T05:47:02.308Z,558.80
2018-06-21T05:48:02.292Z,610.10
2018-06-21T05:49:02.266Z,625.10
2018-06-21T05:50:02.275Z,647.90
2018-06-21T05:51:02.214Z,643.50
2018-06-21T05:52:02.196Z,674.70
2018-06-21T05:53:02.166Z,570.50
2018-06-21T05:54:02.143Z,608.40
2018-06-21T05:55:02.119Z,639.40
2018-06-21T05:56:02.092Z,615.10
2018-06-21T05:57:02.083Z,662.80
2018-06-21T05:58:02.055Z,652.60
2018-06-21T05:59:02.019Z,597.20
2018-06-21T06:00:02.005Z,619.60
2018-06-21T06:01:01.974Z,650.00
2018-06-21T06:02:02.006Z,696.50
2018-06-21T06:03:01.929Z,642.40
2018-06-21T06:04:01.901Z,651.80
2018-06-21T06:05:01.878Z,591.00
2018-06-21T06:06:01.857Z,619.00
2018-06-21T06:07:01.825Z,563.00
2018-06-21T06:08:01.798Z,507.40
2018-06-21T06:09:01.800Z,506.40
2018-06-21T06:10:01.807Z,513.00
2018-06-21T06:11:01.731Z,483.30
2018-06-21T06:12:01.701Z,534.80
2018-06-21T06:13:01.681Z,513.40
2018-06-21T06:14:01.696Z,554.10
2018-06-21T06:15:01.625Z,482.70
2018-06-21T06:16:01.597Z,560.50
2018-06-21T06:17:01.619Z,614.70
2018-06-21T06:18:01.559Z,551.30
2018-06-21T06:19:01.529Z,569.10
2018-06-21T06:20:01.517Z,608.60
2018-06-21T06:21:01.480Z,619.10
2018-06-21T06:22:01.449Z,644.50
2018-06-21T06:23:01.436Z,540.80
2018-06-21T06:24:01.413Z,614.20
2018-06-21T06:26:16.914Z,695.20
2018-06-21T06:26:20.011Z,700.00
2018-06-21T06:27:21.137Z,698.70
2018-06-21T06:28:22.546Z,699.00
2018-06-21T06:29:17.364Z,697.00
2018-06-21T06:30:17.345Z,601.20
2018-06-21T06:31:17.315Z,548.10
2018-06-21T06:32:17.296Z,597.00
2018-06-21T06:33:17.264Z,609.30
2018-06-21T06:34:17.238Z,619.90
2018-06-21T06:35:17.220Z,556.50
2018-06-21T06:36:17.197Z,548.80
2018-06-21T06:37:17.170Z,665.60
2018-06-21T06:38:17.145Z,607.90
2018-06-21T06:39:17.114Z,641.80
2018-06-21T06:40:17.152Z,608.00
2018-06-21T06:41:17.069Z,609.40
2018-06-21T06:42:17.043Z,600.00
2018-06-21T06:43:17.019Z,585.10
2018-06-21T06:44:16.994Z,564.40
2018-06-21T06:45:16.967Z,652.90
2018-06-21T06:46:17.005Z,644.30
2018-06-21T06:47:16.922Z,604.50
2018-06-21T06:48:16.888Z,656.20
2018-06-21T06:49:16.866Z,643.10
2018-06-21T06:50:16.840Z,576.40
2018-06-21T06:51:16.814Z,584.50
2018-06-21T06:52:16.791Z,626.30
2018-06-21T06:53:16.771Z,681.60
2018-06-21T06:54:16.757Z,591.70
2018-06-21T06:55:16.722Z,642.40
2018-06-21T06:56:16.689Z,671.50
2018-06-21T06:57:16.679Z,607.10
2018-06-21T06:58:16.646Z,664.90
2018-06-21T06:59:16.613Z,619.60
2018-06-21T07:00:16.600Z,648.00
2018-06-21T07:01:16.564Z,648.80
2018-06-21T07:02:16.547Z,672.10
2018-06-21T07:03:16.516Z,645.40
2018-06-21T07:04:16.491Z,667.20
2018-06-21T07:05:16.464Z,596.90
2018-06-21T07:06:16.444Z,647.90
2018-06-21T07:07:16.423Z,653.60
2018-06-21T07:08:16.393Z,685.00
2018-06-21T07:09:16.374Z,641.00
2018-06-21T07:10:16.349Z,667.00
2018-06-21T07:11:16.314Z,660.60
2018-06-21T07:12:16.299Z,550.40
2018-06-21T07:13:16.264Z,680.10
2018-06-21T07:14:16.297Z,689.20
2018-06-21T07:15:16.222Z,677.10
2018-06-21T07:16:16.194Z,663.90
2018-06-21T07:17:16.172Z,799.50
2018-06-21T07:18:16.149Z,747.60
2018-06-21T07:19:16.128Z,704.50
2018-06-21T07:20:16.103Z,824.00
2018-06-21T07:21:16.077Z,842.00
2018-06-21T07:22:16.053Z,954.50
2018-06-21T07:23:16.018Z,913.70
2018-06-21T07:24:15.992Z,999.90
2018-06-21T07:25:15.972Z,999.90
2018-06-21T07:26:15.939Z,999.90
2018-06-21T07:27:15.926Z,999.90
2018-06-21T07:28:15.905Z,999.90
2018-06-21T07:29:15.870Z,999.90
2018-06-21T07:30:15.843Z,999.90
2018-06-21T07:31:15.821Z,999.90
2018-06-21T07:32:15.802Z,999.90
2018-06-21T07:33:15.770Z,999.90
2018-06-21T07:34:15.753Z,999.90
2018-06-21T07:35:15.721Z,999.90
2018-06-21T07:36:15.698Z,999.90
2018-06-21T07:37:15.673Z,999.90
2018-06-21T07:38:15.650Z,999.90
2018-06-21T07:39:15.627Z,999.90
2018-06-21T07:40:15.592Z,839.00
2018-06-21T07:41:15.577Z,718.50
2018-06-21T07:42:15.549Z,731.60
2018-06-21T07:43:15.523Z,760.40
2018-06-21T07:44:15.503Z,737.90
2018-06-21T07:45:15.470Z,693.60
2018-06-21T07:46:15.455Z,716.60
2018-06-21T07:47:15.422Z,729.20
2018-06-21T07:48:15.398Z,763.90
2018-06-21T07:49:15.375Z,783.30
2018-06-21T07:50:15.359Z,691.80
2018-06-21T07:51:15.357Z,772.90
2018-06-21T07:52:15.305Z,660.20
2018-06-21T07:53:15.274Z,645.70
2018-06-21T07:54:15.263Z,656.80
2018-06-21T07:55:15.228Z,664.10
2018-06-21T07:56:15.200Z,644.30
2018-06-21T07:57:15.178Z,594.70
2018-06-21T07:58:15.153Z,695.30
2018-06-21T07:59:15.130Z,683.50
2018-06-21T08:00:15.118Z,715.10
2018-06-21T08:01:15.077Z,668.40
2018-06-21T08:02:15.053Z,678.70
2018-06-21T08:03:15.029Z,741.50
2018-06-21T08:04:15.003Z,672.40
2018-06-21T08:05:14.982Z,673.10
2018-06-21T08:06:14.965Z,715.00
2018-06-21T08:07:14.930Z,696.00
2018-06-21T08:08:14.902Z,659.00
2018-06-21T08:09:14.882Z,663.70
2018-06-21T08:10:14.855Z,692.50
2018-06-21T08:11:14.828Z,686.30
2018-06-21T08:12:14.807Z,733.00
2018-06-21T08:13:14.779Z,687.80
2018-06-21T08:14:14.764Z,681.80
2018-06-21T08:15:14.726Z,760.00
2018-06-21T08:16:14.703Z,671.50
2018-06-21T08:17:14.682Z,693.20
2018-06-21T08:18:14.657Z,654.60
2018-06-21T08:19:14.629Z,672.70
2018-06-21T08:20:14.607Z,758.00
2018-06-21T08:21:14.585Z,717.30
2018-06-21T08:22:14.557Z,683.50
2018-06-21T08:23:14.574Z,618.80
2018-06-21T08:24:14.502Z,593.00
2018-06-21T08:25:14.495Z,647.00
2018-06-21T08:26:14.462Z,635.80
2018-06-21T08:27:14.435Z,728.80
2018-06-21T08:28:14.405Z,560.40
2018-06-21T08:29:14.383Z,681.40
2018-06-21T08:30:14.360Z,461.10
2018-06-21T08:31:14.349Z,622.70
2018-06-21T08:32:14.328Z,679.70
2018-06-21T08:33:14.289Z,677.00
2018-06-21T08:34:14.267Z,556.80
2018-06-21T08:35:14.232Z,595.70
2018-06-21T08:36:14.209Z,660.40
2018-06-21T08:37:14.195Z,639.90
2018-06-21T08:38:14.173Z,717.60
2018-06-21T08:39:14.135Z,639.00
2018-06-21T08:40:14.109Z,568.10
2018-06-21T08:41:14.086Z,415.10
2018-06-21T08:42:14.060Z,387.80
2018-06-21T08:43:14.033Z,412.10
2018-06-21T08:44:14.005Z,394.90
2018-06-21T08:45:13.992Z,508.40
2018-06-21T08:46:13.962Z,400.20
2018-06-21T08:47:13.980Z,398.40
2018-06-21T08:48:14.016Z,399.60
2018-06-21T08:49:13.883Z,420.30
2018-06-21T08:50:13.862Z,395.10
2018-06-21T08:51:13.835Z,408.30
2018-06-21T08:52:13.810Z,366.00
2018-06-21T08:53:13.795Z,457.90
2018-06-21T08:54:13.758Z,406.10
2018-06-21T08:55:13.742Z,351.40
2018-06-21T08:56:13.717Z,367.40
2018-06-21T08:57:13.688Z,362.30
2018-06-21T08:58:13.672Z,345.50
2018-06-21T08:59:13.641Z,459.50
2018-06-21T09:00:13.620Z,438.30
2018-06-21T09:01:13.592Z,391.50
2018-06-21T09:02:13.564Z,425.70
2018-06-21T09:03:13.544Z,491.70
2018-06-21T09:04:13.513Z,483.70
2018-06-21T09:05:13.495Z,460.90
2018-06-21T09:06:13.470Z,511.60
2018-06-21T09:07:13.437Z,466.20
2018-06-21T09:08:13.421Z,404.70
2018-06-21T09:09:13.388Z,384.00
2018-06-21T09:10:13.366Z,462.80
2018-06-21T09:11:13.348Z,270.90
2018-06-21T09:12:13.320Z,373.80
2018-06-21T09:13:13.301Z,486.60
2018-06-21T09:14:13.287Z,519.00
2018-06-21T09:15:13.266Z,401.60
2018-06-21T09:16:13.225Z,431.10
2018-06-21T09:17:13.196Z,353.90
2018-06-21T09:18:13.169Z,439.60
2018-06-21T09:19:13.157Z,456.40
2018-06-21T09:20:13.120Z,400.20
2018-06-21T09:21:13.103Z,459.10
2018-06-21T09:22:13.791Z,391.30
2018-06-21T09:23:13.052Z,438.10
2018-06-21T09:24:13.023Z,483.20
2018-06-21T09:25:13.000Z,474.30
2018-06-21T09:26:12.979Z,473.00
2018-06-21T09:27:12.944Z,367.10
2018-06-21T09:28:12.925Z,482.50
2018-06-21T09:29:12.903Z,477.10
2018-06-21T09:30:12.872Z,421.10
2018-06-21T09:31:12.855Z,440.80
2018-06-21T09:32:12.833Z,369.80
2018-06-21T09:35:18.673Z,374.00
2018-06-21T09:36:18.624Z,361.70
2018-06-21T09:37:18.608Z,350.90
2018-06-21T09:38:18.569Z,371.50
2018-06-21T09:39:18.561Z,430.70
2018-06-21T09:40:18.518Z,464.30
2018-06-21T09:41:18.496Z,465.30
2018-06-21T09:42:18.473Z,381.20
2018-06-21T09:43:18.452Z,442.70
2018-06-21T09:44:18.424Z,482.60
2018-06-21T09:45:18.399Z,433.70
2018-06-21T09:46:18.379Z,435.10
2018-06-21T09:47:18.349Z,481.20
2018-06-21T09:48:18.404Z,402.90
2018-06-21T09:49:18.306Z,487.00
2018-06-21T09:50:18.283Z,364.00
2018-06-21T09:51:18.249Z,404.20
2018-06-21T09:52:18.226Z,435.00
2018-06-21T09:53:18.207Z,391.70
2018-06-21T09:54:18.185Z,396.00
2018-06-21T09:55:18.150Z,430.80
2018-06-21T09:56:18.241Z,364.80
2018-06-21T09:57:18.098Z,409.70
2018-06-21T09:58:18.080Z,382.60
2018-06-21T09:59:18.058Z,396.10
2018-06-21T10:00:18.027Z,401.60
2018-06-21T10:01:18.011Z,329.90
2018-06-21T10:02:17.981Z,395.00
2018-06-21T10:03:17.959Z,315.80
2018-06-21T10:04:32.767Z,316.20
2018-06-21T10:05:17.911Z,308.40
2018-06-21T10:06:17.885Z,245.40
2018-06-21T10:07:17.861Z,313.40
2018-06-21T10:08:17.837Z,333.70
2018-06-21T10:09:17.814Z,377.90
2018-06-21T10:10:17.780Z,425.60
2018-06-21T10:11:17.763Z,426.20
2018-06-21T10:12:17.732Z,342.50
2018-06-21T10:13:17.726Z,301.50
2018-06-21T10:14:17.688Z,218.30
2018-06-21T10:15:17.667Z,182.20
2018-06-21T10:16:17.645Z,328.30
2018-06-21T10:17:17.607Z,289.20
2018-06-21T10:18:17.679Z,252.10
2018-06-21T10:19:17.612Z,236.00
2018-06-21T10:20:17.536Z,126.20
2018-06-21T10:21:17.518Z,109.50
2018-06-21T10:22:17.493Z,176.00
2018-06-21T10:23:17.476Z,165.30
2018-06-21T10:24:17.439Z,182.40
2018-06-21T10:25:17.420Z,174.50
2018-06-21T10:26:17.409Z,223.00
2018-06-21T10:27:17.371Z,250.50
2018-06-21T10:28:17.351Z,173.90
2018-06-21T10:29:17.325Z,110.90
2018-06-21T10:30:17.293Z,186.40
2018-06-21T10:31:17.273Z,167.30
2018-06-21T10:32:17.246Z,182.80
2018-06-21T10:33:17.242Z,160.90
2018-06-21T10:34:17.198Z,185.40
2018-06-21T10:35:17.168Z,264.30
2018-06-21T10:36:17.153Z,129.60
2018-06-21T10:37:17.119Z,122.60
2018-06-21T10:38:17.100Z,262.70
2018-06-21T10:39:17.087Z,179.70
2018-06-21T10:40:17.048Z,206.70
2018-06-21T10:41:17.017Z,173.80
2018-06-21T10:42:16.995Z,166.70
2018-06-21T10:43:16.983Z,207.40
2018-06-21T10:44:16.941Z,179.80
2018-06-21T10:45:16.932Z,176.50
2018-06-21T10:46:16.904Z,202.00
2018-06-21T10:47:16.870Z,210.70
2018-06-21T10:48:16.846Z,250.30
2018-06-21T10:49:16.825Z,209.00
2018-06-21T10:50:16.800Z,268.70
2018-06-21T10:51:16.830Z,220.90
2018-06-21T10:52:16.789Z,281.00
2018-06-21T10:53:16.764Z,252.40
2018-06-21T10:54:16.734Z,259.30
2018-06-21T10:55:16.676Z,299.50
2018-06-21T10:56:16.652Z,249.90
2018-06-21T10:57:16.631Z,186.40
2018-06-21T10:58:16.626Z,220.30
2018-06-21T10:59:16.575Z,168.20
2018-06-21T11:00:16.555Z,238.80
2018-06-21T11:01:16.527Z,231.80
2018-06-21T11:02:16.503Z,226.60
2018-06-21T11:03:16.524Z,175.60
2018-06-21T11:04:16.454Z,178.80
2018-06-21T11:05:16.428Z,207.10
2018-06-21T11:06:16.416Z,306.90
2018-06-21T11:07:16.377Z,208.20
2018-06-21T11:08:16.371Z,177.00
2018-06-21T11:09:16.358Z,195.80
2018-06-21T11:10:16.309Z,196.40
2018-06-21T11:11:16.283Z,162.90
2018-06-21T11:12:16.254Z,173.60
2018-06-21T11:13:16.226Z,337.90
2018-06-21T11:14:16.203Z,394.20
2018-06-21T11:15:16.186Z,400.60
2018-06-21T11:16:16.157Z,396.00
2018-06-21T11:17:16.141Z,429.50
2018-06-21T11:18:16.104Z,281.80
2018-06-21T11:19:16.113Z,361.70
2018-06-21T11:20:16.059Z,272.20
2018-06-21T11:21:16.067Z,305.10
2018-06-21T11:22:16.010Z,380.90
2018-06-21T11:23:15.983Z,341.90
2018-06-21T11:24:15.959Z,277.50
2018-06-21T11:25:15.938Z,243.70
2018-06-21T11:26:15.911Z,258.40
2018-06-21T11:27:15.883Z,284.00
2018-06-21T11:28:15.857Z,326.30
2018-06-21T11:29:15.839Z,318.50
2018-06-21T11:30:15.818Z,427.40
2018-06-21T11:31:15.788Z,458.90
2018-06-21T11:32:15.764Z,406.40
2018-06-21T11:33:15.733Z,446.30
2018-06-21T11:34:15.716Z,373.60
2018-06-21T11:35:15.697Z,374.00
2018-06-21T11:36:15.669Z,389.60
2018-06-21T11:37:15.643Z,367.40
2018-06-21T11:38:15.656Z,315.70
2018-06-21T11:39:15.591Z,401.70
2018-06-21T11:40:15.565Z,233.80
2018-06-21T11:41:15.541Z,342.80
2018-06-21T11:42:15.514Z,381.10
2018-06-21T11:43:15.494Z,377.10
2018-06-21T11:44:15.465Z,302.70
2018-06-21T11:45:15.457Z,249.50
2018-06-21T11:46:15.421Z,246.90
2018-06-21T11:47:15.390Z,249.70
2018-06-21T11:48:15.377Z,243.50
2018-06-21T11:49:15.342Z,283.30
2018-06-21T11:50:15.322Z,316.00
2018-06-21T11:51:15.292Z,274.30
2018-06-21T11:52:15.292Z,264.40
2018-06-21T11:53:15.249Z,291.50
2018-06-21T11:54:15.217Z,263.60
2018-06-21T11:55:15.201Z,348.40
2018-06-21T11:56:15.169Z,303.50
2018-06-21T11:57:15.151Z,299.70
2018-06-21T11:58:15.128Z,389.70
2018-06-21T11:59:15.095Z,291.20
2018-06-21T12:00:15.067Z,264.10
2018-06-21T12:01:15.047Z,280.20
2018-06-21T12:02:15.028Z,280.00
2018-06-21T12:03:15.014Z,267.20
2018-06-21T12:04:14.972Z,251.40
2018-06-21T12:05:14.954Z,257.50
2018-06-21T12:06:14.925Z,230.20
2018-06-21T12:07:14.937Z,268.20
2018-06-21T12:08:14.876Z,227.40
2018-06-21T12:09:14.853Z,270.30
2018-06-21T12:10:14.836Z,254.90
2018-06-21T12:11:14.801Z,238.20
2018-06-21T12:12:14.781Z,271.30
2018-06-21T12:13:14.780Z,267.50
2018-06-21T12:14:14.734Z,268.50
2018-06-21T12:15:14.701Z,258.80
2018-06-21T12:16:14.684Z,291.50
2018-06-21T12:17:14.657Z,369.60
2018-06-21T12:18:14.636Z,322.40
2018-06-21T12:19:14.610Z,325.90
2018-06-21T12:20:14.584Z,354.90
2018-06-21T12:21:14.556Z,305.50
2018-06-21T12:22:14.549Z,293.60
2018-06-21T12:23:14.518Z,268.40
2018-06-21T12:24:14.482Z,243.50
2018-06-21T12:25:14.462Z,261.00
2018-06-21T12:26:14.445Z,238.30
2018-06-21T12:27:14.416Z,254.70
2018-06-21T12:28:14.388Z,287.70
2018-06-21T12:29:14.360Z,274.70
2018-06-21T12:30:14.339Z,282.20